createdAt,value
2019-02-27T00:00:52.395Z,-0.26
2019-02-27T00:04:55.790Z,-0.21
2019-02-27T00:09:00.580Z,-0.51
2019-02-27T00:13:04.247Z,-0.61
2019-02-27T00:17:08.325Z,-0.59
2019-02-27T00:21:11.794Z,-0.77
2019-02-27T00:25:15.190Z,-0.92
2019-02-27T00:29:18.605Z,-0.84
2019-02-27T00:33:25.060Z,-0.72
2019-02-27T00:37:27.160Z,-0.97
2019-02-27T00:41:30.683Z,-0.72
2019-02-27T00:45:34.089Z,-0.97
2019-02-27T00:49:37.491Z,-1.35
2019-02-27T00:53:40.943Z,-1.37
2019-02-27T00:57:44.408Z,-1.13
2019-02-27T01:01:48.025Z,-1.00
2019-02-27T01:05:51.534Z,-0.91
2019-02-27T01:09:55.001Z,-0.78
2019-02-27T01:13:58.354Z,-0.99
2019-02-27T01:18:01.762Z,-0.89
2019-02-27T01:22:05.584Z,-0.82
2019-02-27T01:26:08.988Z,-0.63
2019-02-27T01:30:14.870Z,-0.78
2019-02-27T01:34:18.263Z,-0.60
2019-02-27T01:38:21.566Z,-0.88
2019-02-27T01:42:24.881Z,-0.85
2019-02-27T01:46:28.449Z,-0.81
2019-02-27T01:50:33.447Z,-0.57
2019-02-27T01:54:36.843Z,-0.68
2019-02-27T01:58:43.307Z,-0.78
2019-02-27T02:02:45.298Z,-0.96
2019-02-27T02:06:48.712Z,-1.01
2019-02-27T02:10:53.927Z,-1.00
2019-02-27T02:15:21.949Z,-1.02
2019-02-27T02:19:54.017Z,-0.90
2019-02-27T02:23:59.793Z,-1.06
2019-02-27T02:28:15.510Z,-1.10
2019-02-27T02:32:34.254Z,-1.14
2019-02-27T02:36:40.966Z,-1.16
2019-02-27T02:40:56.435Z,-1.09
2019-02-27T02:45:33.118Z,-0.93
2019-02-27T02:50:17.461Z,-0.85
2019-02-27T02:54:37.437Z,-0.92
2019-02-27T02:58:57.166Z,-0.81
2019-02-27T03:03:04.332Z,-0.72
2019-02-27T03:07:16.699Z,-0.42
2019-02-27T03:11:29.127Z,-0.73
2019-02-27T03:15:35.704Z,-0.90
2019-02-27T03:19:44.950Z,-0.81
2019-02-27T03:24:09.760Z,-0.60
2019-02-27T03:28:28.441Z,-0.76
2019-02-27T03:32:44.357Z,-0.96
2019-02-27T03:37:17.843Z,-1.01
2019-02-27T03:41:36.364Z,-0.85
2019-02-27T03:45:45.712Z,-1.02
2019-02-27T03:49:52.297Z,-0.82
2019-02-27T03:54:20.930Z,-0.88
2019-02-27T03:58:30.578Z,-0.86
2019-02-27T04:02:53.262Z,-1.12
2019-02-27T04:07:06.082Z,-1.21
2019-02-27T04:11:09.526Z,-1.11
2019-02-27T04:15:17.687Z,-1.14
2019-02-27T04:19:18.157Z,-1.13
2019-02-27T04:23:21.563Z,-1.06
2019-02-27T04:27:24.969Z,-1.26
2019-02-27T04:31:30.577Z,-1.13
2019-02-27T04:35:34.311Z,-1.03
2019-02-27T04:39:38.269Z,-1.22
2019-02-27T04:43:42.187Z,-1.03
2019-02-27T04:47:45.499Z,-1.14
2019-02-27T04:51:50.606Z,-1.26
2019-02-27T04:55:53.953Z,-1.34
2019-02-27T04:59:57.269Z,-1.42
2019-02-27T05:04:01.450Z,-1.49
2019-02-27T05:08:05.507Z,-1.47
2019-02-27T05:12:08.926Z,-1.28
2019-02-27T05:16:14.265Z,-1.25
2019-02-27T05:20:17.478Z,-1.30
2019-02-27T05:24:20.887Z,-1.14
2019-02-27T05:28:24.293Z,-1.21
2019-02-27T05:32:28.294Z,-1.26
2019-02-27T05:36:32.374Z,-1.20
2019-02-27T05:40:35.873Z,-1.12
2019-02-27T05:44:39.566Z,-1.14
2019-02-27T05:48:42.976Z,-1.14
2019-02-27T05:52:48.899Z,-1.24
2019-02-27T05:56:51.539Z,-1.48
2019-02-27T06:00:55.354Z,-1.62
2019-02-27T06:04:59.057Z,-1.65
2019-02-27T06:09:03.914Z,-1.70
2019-02-27T06:13:07.318Z,-1.67
2019-02-27T06:17:12.894Z,-1.55
2019-02-27T06:21:16.606Z,-1.51
2019-02-27T06:25:23.327Z,-1.31
2019-02-27T06:29:25.055Z,-1.01
2019-02-27T06:33:28.370Z,-0.15
2019-02-27T06:37:31.764Z,0.26
2019-02-27T06:41:35.133Z,0.62
2019-02-27T06:45:38.819Z,1.82
2019-02-27T06:49:42.196Z,4.31
2019-02-27T06:53:46.084Z,6.56
2019-02-27T06:57:49.527Z,6.96
2019-02-27T07:01:52.894Z,7.01
2019-02-27T07:05:56.752Z,8.62
2019-02-27T07:10:00.281Z,7.82
2019-02-27T07:14:03.713Z,8.34
2019-02-27T07:18:07.186Z,7.28
2019-02-27T07:22:12.650Z,6.88
2019-02-27T07:26:15.995Z,8.42
2019-02-27T07:30:23.630Z,5.74
2019-02-27T07:34:26.552Z,6.40
2019-02-27T07:38:30.014Z,4.51
2019-02-27T07:42:33.376Z,3.90
2019-02-27T07:46:36.886Z,4.02
2019-02-27T07:50:40.699Z,4.55
2019-02-27T07:54:44.124Z,4.89
2019-02-27T07:58:47.516Z,6.20
2019-02-27T08:02:50.822Z,6.26
2019-02-27T08:06:54.241Z,7.76
2019-02-27T08:10:57.649Z,7.96
2019-02-27T08:15:00.974Z,8.05
2019-02-27T08:19:04.370Z,7.69
2019-02-27T08:23:07.778Z,9.28
2019-02-27T08:27:11.184Z,11.19
2019-02-27T08:31:14.594Z,10.43
2019-02-27T08:35:18.004Z,8.83
2019-02-27T08:39:21.417Z,8.20
2019-02-27T08:43:24.821Z,9.08
2019-02-27T08:47:28.227Z,9.68
2019-02-27T08:51:31.636Z,9.13
2019-02-27T08:55:38.997Z,9.37
2019-02-27T08:59:40.771Z,9.53
2019-02-27T09:03:44.219Z,9.47
2019-02-27T09:07:47.628Z,9.67
2019-02-27T09:11:51.044Z,10.78
2019-02-27T09:15:54.445Z,14.16
2019-02-27T09:19:57.854Z,16.61
2019-02-27T09:24:01.267Z,19.84
2019-02-27T09:28:08.786Z,20.77
2019-02-27T09:32:11.657Z,20.57
2019-02-27T09:36:14.981Z,20.77
2019-02-27T09:40:26.987Z,21.60
2019-02-27T09:44:30.392Z,21.96
2019-02-27T09:48:34.103Z,22.09
2019-02-27T09:52:37.619Z,21.31
2019-02-27T09:56:41.028Z,21.24
2019-02-27T10:00:46.447Z,21.21
2019-02-27T10:04:49.891Z,22.00
2019-02-27T10:08:53.256Z,22.72
2019-02-27T10:12:56.618Z,22.53
2019-02-27T10:17:00.020Z,23.98
2019-02-27T10:21:03.429Z,24.49
2019-02-27T10:25:08.619Z,25.40
2019-02-27T10:29:13.442Z,24.11
2019-02-27T10:33:18.156Z,24.38
2019-02-27T10:37:21.636Z,24.95
2019-02-27T10:41:25.699Z,24.20
2019-02-27T10:45:29.304Z,24.64
2019-02-27T10:49:32.720Z,25.10
2019-02-27T10:53:36.435Z,24.16
2019-02-27T10:57:39.785Z,23.79
2019-02-27T11:01:43.250Z,24.66
2019-02-27T11:05:46.663Z,24.53
2019-02-27T11:09:50.070Z,24.53
2019-02-27T11:13:55.431Z,24.23
2019-02-27T11:18:04.183Z,23.70
2019-02-27T11:22:03.671Z,22.67
2019-02-27T11:26:07.084Z,18.91
2019-02-27T11:30:16.738Z,18.91
2019-02-27T11:34:20.153Z,18.00
2019-02-27T11:38:24.784Z,17.62
2019-02-27T11:42:31.797Z,17.59
2019-02-27T11:46:35.147Z,17.65
2019-02-27T11:50:39.106Z,17.45
2019-02-27T11:54:43.280Z,17.80
2019-02-27T11:58:47.463Z,17.64
2019-02-27T12:02:50.872Z,17.70
2019-02-27T12:06:54.283Z,17.80
2019-02-27T12:10:57.690Z,17.53
2019-02-27T12:15:01.099Z,17.50
2019-02-27T12:19:06.377Z,17.47
2019-02-27T12:23:10.083Z,17.59
2019-02-27T12:27:25.688Z,17.70
2019-02-27T12:31:19.656Z,17.70
2019-02-27T12:35:25.828Z,17.50
2019-02-27T12:39:29.236Z,17.67
2019-02-27T12:43:32.642Z,17.66
2019-02-27T12:47:37.622Z,17.57
2019-02-27T12:51:41.198Z,17.63
2019-02-27T12:55:44.716Z,17.35
2019-02-27T12:59:48.123Z,17.52
2019-02-27T13:03:51.537Z,17.75
2019-02-27T13:07:54.939Z,17.62
2019-02-27T13:11:58.391Z,17.96
2019-02-27T13:16:01.759Z,18.00
2019-02-27T13:20:12.521Z,17.89
2019-02-27T13:24:16.067Z,17.83
2019-02-27T13:28:19.562Z,17.98
2019-02-27T13:32:26.556Z,17.93
2019-02-27T13:36:28.535Z,17.38
2019-02-27T13:40:35.143Z,17.10
2019-02-27T13:44:38.834Z,17.20
2019-02-27T13:48:42.445Z,17.08
2019-02-27T13:52:49.902Z,16.77
2019-02-27T13:56:52.019Z,16.94
2019-02-27T14:00:55.439Z,16.94
2019-02-27T14:05:00.622Z,16.91
2019-02-27T14:09:07.059Z,17.01
2019-02-27T14:13:10.786Z,16.81
2019-02-27T14:17:14.247Z,16.59
2019-02-27T14:21:17.609Z,16.30
2019-02-27T14:25:33.069Z,16.16
2019-02-27T14:29:35.380Z,16.14
2019-02-27T14:33:38.793Z,16.02
2019-02-27T14:37:42.201Z,15.92
2019-02-27T14:41:48.221Z,16.01
2019-02-27T14:45:50.964Z,15.82
2019-02-27T14:49:54.617Z,15.71
2019-02-27T14:53:58.907Z,15.66
2019-02-27T14:58:02.315Z,15.44
2019-02-27T15:02:05.726Z,15.54
2019-02-27T15:06:09.133Z,15.44
2019-02-27T15:10:17.707Z,15.07
2019-02-27T15:14:21.282Z,14.76
2019-02-27T15:18:24.788Z,14.53
2019-02-27T15:22:28.196Z,14.49
2019-02-27T15:26:31.709Z,14.72
2019-02-27T15:30:37.288Z,14.57
2019-02-27T15:34:45.923Z,14.67
2019-02-27T15:38:50.121Z,14.55
2019-02-27T15:42:53.447Z,14.35
2019-02-27T15:46:57.325Z,14.07
2019-02-27T15:51:04.013Z,14.09
2019-02-27T15:55:09.314Z,13.76
2019-02-27T15:59:12.831Z,13.57
2019-02-27T16:03:16.229Z,13.38
2019-02-27T16:07:19.631Z,13.18
2019-02-27T16:11:23.039Z,12.98
2019-02-27T16:15:26.663Z,12.77
2019-02-27T16:19:33.817Z,12.54
2019-02-27T16:23:39.225Z,12.21
2019-02-27T16:27:46.433Z,11.90
2019-02-27T16:31:50.550Z,11.69
2019-02-27T16:35:56.975Z,11.32
2019-02-27T16:40:00.627Z,10.99
2019-02-27T16:44:04.044Z,10.56
2019-02-27T16:48:07.442Z,10.20
2019-02-27T16:52:10.875Z,9.93
2019-02-27T16:56:14.258Z,9.63
2019-02-27T17:00:21.341Z,9.29
2019-02-27T17:04:24.864Z,8.95
2019-02-27T17:08:28.424Z,8.60
2019-02-27T17:12:31.720Z,8.38
2019-02-27T17:16:38.335Z,8.15
2019-02-27T17:20:46.083Z,7.98
2019-02-27T17:24:47.033Z,7.83
2019-02-27T17:28:51.641Z,7.59
2019-02-27T17:32:55.591Z,7.50
2019-02-27T17:36:59.101Z,7.37
2019-02-27T17:41:02.540Z,7.24
2019-02-27T17:45:10.027Z,7.02
2019-02-27T17:49:14.447Z,6.79
2019-02-27T17:53:20.480Z,6.52
2019-02-27T17:57:25.031Z,6.43
2019-02-27T18:01:28.367Z,6.34
2019-02-27T18:05:31.817Z,6.47
2019-02-27T18:09:35.202Z,6.73
2019-02-27T18:13:39.158Z,6.83
2019-02-27T18:17:42.742Z,7.01
2019-02-27T18:21:46.262Z,7.25
2019-02-27T18:25:49.663Z,7.50
2019-02-27T18:29:53.100Z,7.63
2019-02-27T18:33:56.504Z,7.84
2019-02-27T18:37:59.930Z,7.98
2019-02-27T18:42:04.447Z,8.10
2019-02-27T18:46:07.837Z,7.99
2019-02-27T18:50:13.003Z,7.90
2019-02-27T18:54:16.393Z,7.85
2019-02-27T18:58:20.958Z,7.87
2019-02-27T19:02:25.054Z,7.82
2019-02-27T19:06:28.463Z,7.90
2019-02-27T19:10:32.021Z,8.00
2019-02-27T19:14:36.723Z,8.00
2019-02-27T19:18:41.145Z,7.99
2019-02-27T19:22:45.273Z,8.08
2019-02-27T19:26:49.516Z,8.20
2019-02-27T19:30:53.031Z,8.31
2019-02-27T19:34:56.422Z,8.50
2019-02-27T19:38:59.806Z,8.72
2019-02-27T19:43:04.506Z,9.00
2019-02-27T19:47:07.988Z,9.20
2019-02-27T19:51:11.492Z,9.16
2019-02-27T19:55:15.004Z,8.90
2019-02-27T19:59:24.639Z,8.74
2019-02-27T20:03:23.979Z,8.49
2019-02-27T20:07:27.424Z,8.31
2019-02-27T20:11:30.796Z,7.99
2019-02-27T20:15:34.300Z,7.95
2019-02-27T20:19:37.710Z,7.81
2019-02-27T20:23:41.223Z,7.64
2019-02-27T20:27:44.735Z,7.65
2019-02-27T20:31:48.244Z,7.65
2019-02-27T20:35:52.401Z,7.67
2019-02-27T20:39:59.168Z,7.63
2019-02-27T20:44:03.493Z,7.59
2019-02-27T20:48:07.718Z,7.40
2019-02-27T20:52:14.524Z,7.20
2019-02-27T20:56:16.383Z,6.86
2019-02-27T21:00:20.740Z,6.49
2019-02-27T21:04:24.120Z,6.23
2019-02-27T21:08:27.635Z,6.25
2019-02-27T21:12:31.041Z,6.17
2019-02-27T21:16:35.984Z,6.12
2019-02-27T21:20:39.405Z,6.06
2019-02-27T21:24:44.542Z,5.90
2019-02-27T21:28:57.888Z,5.92
2019-02-27T21:32:53.105Z,5.99
2019-02-27T21:36:56.510Z,5.70
2019-02-27T21:40:59.919Z,6.26
2019-02-27T21:45:04.603Z,6.94
2019-02-27T21:49:08.275Z,7.29
2019-02-27T21:53:11.682Z,7.36
2019-02-27T21:57:15.100Z,7.34
2019-02-27T22:01:19.246Z,7.49
2019-02-27T22:05:23.667Z,7.56
2019-02-27T22:09:27.068Z,7.66
2019-02-27T22:13:32.317Z,7.70
2019-02-27T22:17:36.667Z,7.75
2019-02-27T22:21:41.076Z,7.76
2019-02-27T22:25:44.483Z,7.82
2019-02-27T22:29:47.897Z,7.90
2019-02-27T22:33:53.106Z,7.94
2019-02-27T22:37:56.454Z,7.93
2019-02-27T22:41:59.864Z,7.80
2019-02-27T22:46:03.476Z,7.98
2019-02-27T22:50:09.879Z,7.87
2019-02-27T22:54:13.284Z,7.79
2019-02-27T22:58:16.900Z,7.66
2019-02-27T23:02:21.592Z,7.64
2019-02-27T23:06:25.748Z,7.66
2019-02-27T23:10:30.929Z,7.58
2019-02-27T23:14:34.305Z,7.50
2019-02-27T23:18:40.337Z,7.56
2019-02-27T23:22:42.860Z,7.49
2019-02-27T23:26:46.268Z,7.38
2019-02-27T23:30:49.677Z,7.28
2019-02-27T23:34:53.085Z,7.11
2019-02-27T23:38:56.492Z,7.00
2019-02-27T23:43:03.383Z,7.06
2019-02-27T23:47:05.053Z,6.87
2019-02-27T23:51:08.768Z,6.82
2019-02-27T23:55:12.178Z,6.79
2019-02-27T23:59:15.592Z,6.84
